To NAV CANADA Home Page Login to a new session Search on AWWS site Feedback and Comments Disclaimer Vers la page française équivalente Tips FAQ What's new on the site To the Forecasts and Observations / NOTAM section To "File a Flight Plan" website Publications and other links Update of the User's profile FIC Telephone Numbers My Weather Data Folder Route Weather Data Regional Weather Data Local Weather Data To the Forecasts and Observations / NOTAM section
Request Generated 08/29/2016 at 12:36:28 UTC . Weather information available at that time is displayed.

METAR/TAF

GANDER/GANDER INTL/NL    

METAR CYQX 291200Z 20007KT 20SM BKN170 BKN200 16/11 A3002 RMK AC5CC2
SLP170 DENSITY ALT 500FT=
METAR CYQX 291100Z 21008KT 20SM BKN200 BKN260 14/10 A3004 RMK CC5CI1
SLP176=
METAR CYQX 291000Z 22013KT 20SM FEW150 SCT220 BKN260 13/10 A3006 RMK
AC1CC3CI2 SLP183=

TAF CYQX 291140Z 2912/3012 21008KT P6SM BKN200
FM291700 15015G25KT P6SM BKN040
FM291900 15015G25KT P6SM -RA BKN030
FM300200 18015KT 6SM BR OVC010 TEMPO 3002/3005 3SM -RA BR OVC004
PROB30 3002/3005 2SM TSRA BR BKN008 OVC010CB
FM300500 18015KT 3SM -RA BR OVC004 TEMPO 3005/3012 6SM BR OVC010
RMK NXT FCST BY 291800Z=
Your time UTC time
Weather data provided by Environment Canada and NAV CANADA